Oakland, CA (94619)

9:55 AM PDT on July 31, 2015 (GMT -0700)
Upper Laurel | | Change Station
CLOSE
Current Station
Personal Weather Station
Location: Oakland, CA
Elevation: 276 ft
Nearby Weather Stations

Elev 276 ft 37.79 °N, 122.19 °W | Updated 56 seconds ago

Mostly Cloudy
Mostly Cloudy
70.2 °F
Feels Like 77 °F
N
7.6
Wind Variable Wind from West
Gusts 8.1 mph

Today
High -- | Low -- °F
--% Chance of Precip.
Yesterday
High -- | Low -- °F
Precip. -- in
6:11 AM 8:18 PM
Full, 100% visible
Pressure 30.04 in
Visibility 10.0 miles
Clouds Mostly Cloudy 1200 ft
Overcast 12000 ft
Heat Index 77 °F
Dew Point 50 °F
Humidity 49%
Rainfall -999.00 in
Snow Depth Not available.
UV 1 out of 12
Pollen 3.70 out of 12
Air Quality Not available.
Flu Activity Not available.
METAR KOAK 311553Z 30005KT 10SM BKN012 OVC120 18/14 A3004 RMK AO2 SLP172 T01780139

More Conditions Fewer Conditions

Pressure 30.04 in
Visibility 10.0 miles
Clouds Mostly Cloudy 1200 ft
Overcast 12000 ft
Heat Index 77 °F
Dew Point 50 °F
Humidity 49%
Rainfall -999.00 in
Snow Depth Not available.
UV 1 out of 12
Pollen 3.70 out of 12
Air Quality Not available.
Flu Activity Not available.
METAR KOAK 311553Z 30005KT 10SM BKN012 OVC120 18/14 A3004 RMK AO2 SLP172 T01780139

More Conditions Fewer Conditions

10-Day Weather Forecast

×

Almanac

Astronomy

Jul. 31, 2015 Rise Set
Actual Time
Civil Twilight
Nautical Twilight
Astronomical Twilight
Moon
Length of Visible Light
Length of Day
Tomorrow will be .
, % of the Moon is Illuminated

Today's Extremes

State Highs State Lows

Community

WunderPhotos

Upload Photos

1,842,693 photos uploaded!

WunderBlogs® & News

Nearby

Air Quality

  Air Quality AQ Index Pollutant
Not available.

Snow Depth

Station Depth Elevation

Earthquake Activity

City Distance Mag. Time & Date
Minimum magnitude displayed is 2.5.

Coastal Water Temperatures

Place Temperature

Stations

Nearby Weather Stations

Station Location Temp. Windchill Dew Point Humidity Wind Precip. Elev Updated Type